createdAt,value
2022-11-07T00:01:48.565Z,6.00
2022-11-07T00:04:16.053Z,5.30
2022-11-07T00:06:43.237Z,5.17
2022-11-07T00:09:10.498Z,5.00
2022-11-07T00:11:37.654Z,5.60
2022-11-07T00:14:04.921Z,5.10
2022-11-07T00:16:32.646Z,4.90
2022-11-07T00:18:59.892Z,4.43
2022-11-07T00:21:27.040Z,4.80
2022-11-07T00:23:54.292Z,4.60
2022-11-07T00:26:21.837Z,4.70
2022-11-07T00:28:49.192Z,4.93
2022-11-07T00:31:16.673Z,4.77
2022-11-07T00:33:43.860Z,4.80
2022-11-07T00:36:17.100Z,4.30
2022-11-07T00:38:44.557Z,4.70
2022-11-07T00:41:11.790Z,4.20
2022-11-07T00:43:38.990Z,4.77
2022-11-07T00:46:07.038Z,4.50
2022-11-07T00:48:34.376Z,4.50
2022-11-07T00:51:12.225Z,4.20
2022-11-07T00:53:39.923Z,4.17
2022-11-07T00:56:08.315Z,3.90
2022-11-07T00:58:35.624Z,3.83
2022-11-07T01:01:10.388Z,4.10
2022-11-07T01:03:56.538Z,3.90
2022-11-07T01:06:23.972Z,4.00
2022-11-07T01:08:51.757Z,3.83
2022-11-07T01:11:18.989Z,3.90
2022-11-07T01:13:46.153Z,3.77
2022-11-07T01:16:13.362Z,3.60
2022-11-07T01:18:40.555Z,3.60
2022-11-07T01:21:13.509Z,3.27
2022-11-07T01:23:43.434Z,3.70
2022-11-07T01:26:12.070Z,3.60
2022-11-07T01:28:39.446Z,3.30
2022-11-07T01:31:08.221Z,3.63
2022-11-07T01:33:35.403Z,3.43
2022-11-07T01:36:06.509Z,3.30
2022-11-07T01:38:33.735Z,3.30
2022-11-07T01:41:19.894Z,3.50
2022-11-07T01:43:49.478Z,3.70
2022-11-07T01:46:17.172Z,3.77
2022-11-07T01:48:47.728Z,3.20
2022-11-07T01:51:15.521Z,3.90
2022-11-07T01:53:42.980Z,3.53
2022-11-07T01:56:15.003Z,3.40
2022-11-07T01:58:42.982Z,3.27
2022-11-07T02:01:10.221Z,3.23
2022-11-07T02:03:37.581Z,3.37
2022-11-07T02:06:07.101Z,3.43
2022-11-07T02:08:34.870Z,3.23
2022-11-07T02:11:03.173Z,3.30
2022-11-07T02:13:32.037Z,3.50
2022-11-07T02:16:00.535Z,3.30
2022-11-07T02:18:28.579Z,3.50
2022-11-07T02:20:58.002Z,3.30
2022-11-07T02:23:27.906Z,3.33
2022-11-07T02:25:55.573Z,3.47
2022-11-07T02:28:24.321Z,3.47
2022-11-07T02:30:51.436Z,3.60
2022-11-07T02:33:23.007Z,3.20
2022-11-07T02:35:51.427Z,3.40
2022-11-07T02:38:23.214Z,3.47
2022-11-07T02:40:58.124Z,3.80
2022-11-07T02:43:27.607Z,3.93
2022-11-07T02:45:55.367Z,3.23
2022-11-07T02:48:22.499Z,3.40
2022-11-07T02:50:49.644Z,3.47
2022-11-07T02:53:17.097Z,3.60
2022-11-07T02:55:44.574Z,3.80
2022-11-07T02:58:11.833Z,3.67
2022-11-07T03:00:39.012Z,4.10
2022-11-07T03:03:06.382Z,3.53
2022-11-07T03:05:33.515Z,3.90
2022-11-07T03:08:00.590Z,3.70
2022-11-07T03:10:27.709Z,3.90
2022-11-07T03:12:54.798Z,2.90
2022-11-07T03:15:21.938Z,3.23
2022-11-07T03:17:49.047Z,2.93
2022-11-07T03:20:16.150Z,2.57
2022-11-07T03:22:43.377Z,2.87
2022-11-07T03:25:10.603Z,2.40
2022-11-07T03:27:37.755Z,2.60
2022-11-07T03:30:05.082Z,2.20
2022-11-07T03:32:34.802Z,2.50
2022-11-07T03:35:01.964Z,2.70
2022-11-07T03:37:29.066Z,2.20
2022-11-07T03:39:56.180Z,2.00
2022-11-07T03:42:23.309Z,2.50
2022-11-07T03:44:50.392Z,2.37
2022-11-07T03:47:17.521Z,2.30
2022-11-07T03:49:44.627Z,1.90
2022-11-07T03:52:11.733Z,1.90
2022-11-07T03:54:38.831Z,2.30
2022-11-07T03:57:05.929Z,2.00
2022-11-07T03:59:33.026Z,1.70
2022-11-07T04:02:00.540Z,1.90
2022-11-07T04:04:27.896Z,2.13
2022-11-07T04:06:55.023Z,1.70
2022-11-07T04:09:22.113Z,1.67
2022-11-07T04:12:07.733Z,1.93
2022-11-07T04:14:53.662Z,1.73
2022-11-07T04:17:21.062Z,1.70
2022-11-07T04:19:49.057Z,1.80
2022-11-07T04:22:16.244Z,1.70
2022-11-07T04:24:46.037Z,2.10
2022-11-07T04:27:33.416Z,1.90
2022-11-07T04:30:18.896Z,2.40
2022-11-07T04:32:50.700Z,1.90
2022-11-07T04:35:18.214Z,1.97
2022-11-07T04:37:45.569Z,1.90
2022-11-07T04:40:12.941Z,2.00
2022-11-07T04:42:40.338Z,2.57
2022-11-07T04:45:07.843Z,2.13
2022-11-07T04:47:40.008Z,2.20
2022-11-07T04:50:09.031Z,2.10
2022-11-07T04:52:36.152Z,2.20
2022-11-07T04:55:03.736Z,2.23
2022-11-07T04:57:30.831Z,2.10
2022-11-07T04:59:58.073Z,2.17
2022-11-07T05:02:25.508Z,2.30
2022-11-07T05:04:53.255Z,2.70
2022-11-07T05:07:20.589Z,2.40
2022-11-07T05:09:47.729Z,2.70
2022-11-07T05:12:14.902Z,2.60
2022-11-07T05:14:42.026Z,2.70
2022-11-07T05:17:11.066Z,2.70
2022-11-07T05:19:38.155Z,2.87
2022-11-07T05:22:23.930Z,2.57
2022-11-07T05:24:51.063Z,3.10
2022-11-07T05:27:19.178Z,2.83
2022-11-07T05:29:46.724Z,3.10
2022-11-07T05:32:14.075Z,3.10
2022-11-07T05:34:41.446Z,2.70
2022-11-07T05:37:09.520Z,2.63
2022-11-07T05:39:36.992Z,2.77
2022-11-07T05:42:04.461Z,2.60
2022-11-07T05:44:31.687Z,2.57
2022-11-07T05:46:58.936Z,2.80
2022-11-07T05:49:26.445Z,2.47
2022-11-07T05:51:53.806Z,3.10
2022-11-07T05:54:21.184Z,2.97
2022-11-07T05:56:48.376Z,2.90
2022-11-07T05:59:15.609Z,2.87
2022-11-07T06:01:44.050Z,2.60
2022-11-07T06:04:12.827Z,3.07
2022-11-07T06:06:39.922Z,2.97
2022-11-07T06:09:07.077Z,3.40
2022-11-07T06:11:34.205Z,3.40
2022-11-07T06:14:01.363Z,3.63
2022-11-07T06:16:28.741Z,3.50
2022-11-07T06:18:55.829Z,4.10
2022-11-07T06:21:22.933Z,4.67
2022-11-07T06:23:50.046Z,4.70
2022-11-07T06:26:17.311Z,5.27
2022-11-07T06:28:44.446Z,5.80
2022-11-07T06:31:11.835Z,6.20
2022-11-07T06:33:39.023Z,6.27
2022-11-07T06:36:07.630Z,6.33
2022-11-07T06:38:34.990Z,4.90
2022-11-07T06:41:15.283Z,5.77
2022-11-07T06:43:42.434Z,6.93
2022-11-07T06:46:10.985Z,6.27
2022-11-07T06:48:38.315Z,6.43
2022-11-07T06:51:06.201Z,6.60
2022-11-07T06:53:33.422Z,6.80
2022-11-07T06:56:01.599Z,5.90
2022-11-07T06:58:28.802Z,6.47
2022-11-07T07:00:59.101Z,6.00
2022-11-07T07:03:26.293Z,5.93
2022-11-07T07:05:53.377Z,6.27
2022-11-07T07:08:20.475Z,5.67
2022-11-07T07:10:47.729Z,5.60
2022-11-07T07:13:15.141Z,5.77
2022-11-07T07:15:51.011Z,5.40
2022-11-07T07:18:18.998Z,4.50
2022-11-07T07:20:46.473Z,4.50
2022-11-07T07:23:13.848Z,4.90
2022-11-07T07:25:41.103Z,5.03
2022-11-07T07:28:08.268Z,5.03
2022-11-07T07:30:35.435Z,5.10
2022-11-07T07:33:02.574Z,4.83
2022-11-07T07:35:29.744Z,4.30
2022-11-07T07:37:56.917Z,5.10
2022-11-07T07:40:24.091Z,4.70
2022-11-07T07:42:51.217Z,4.87
2022-11-07T07:45:18.455Z,4.50
2022-11-07T07:47:46.076Z,4.30
2022-11-07T07:50:13.447Z,4.63
2022-11-07T07:52:41.102Z,4.03
2022-11-07T07:55:10.020Z,4.93
2022-11-07T07:57:41.070Z,4.07
2022-11-07T08:00:08.593Z,4.17
2022-11-07T08:02:35.751Z,3.70
2022-11-07T08:05:02.994Z,4.03
2022-11-07T08:07:30.129Z,3.47
2022-11-07T08:09:59.384Z,3.50
2022-11-07T08:12:29.327Z,3.33
2022-11-07T08:14:56.424Z,3.23
2022-11-07T08:17:23.550Z,3.10
2022-11-07T08:19:50.680Z,3.07
2022-11-07T08:22:17.785Z,3.20
2022-11-07T08:24:44.931Z,3.47
2022-11-07T08:27:12.156Z,3.27
2022-11-07T08:29:39.270Z,3.50
2022-11-07T08:32:06.435Z,3.40
2022-11-07T08:34:33.547Z,3.27
2022-11-07T08:37:00.754Z,3.40
2022-11-07T08:39:27.860Z,3.13
2022-11-07T08:41:55.062Z,3.47
2022-11-07T08:44:22.192Z,3.33
2022-11-07T08:46:49.275Z,3.63
2022-11-07T08:49:16.399Z,2.70
2022-11-07T08:51:43.493Z,3.43
2022-11-07T08:54:12.133Z,3.50
2022-11-07T08:56:39.229Z,3.10
2022-11-07T08:59:06.458Z,3.23
2022-11-07T09:01:33.822Z,2.70
2022-11-07T09:04:01.137Z,2.60
2022-11-07T09:06:28.386Z,3.03
2022-11-07T09:08:55.485Z,3.23
2022-11-07T09:11:22.607Z,3.10
2022-11-07T09:13:49.857Z,3.20
2022-11-07T09:16:17.496Z,2.70
2022-11-07T09:18:45.215Z,3.00
2022-11-07T09:21:15.383Z,3.10
2022-11-07T09:23:44.995Z,3.03
2022-11-07T09:26:12.502Z,2.73
2022-11-07T09:28:39.623Z,2.73
2022-11-07T09:31:06.939Z,2.87
2022-11-07T09:33:34.066Z,2.83
2022-11-07T09:36:02.120Z,2.70
2022-11-07T09:38:29.341Z,2.83
2022-11-07T09:40:56.431Z,2.83
2022-11-07T09:43:29.772Z,2.97
2022-11-07T09:46:02.905Z,2.77
2022-11-07T09:48:34.776Z,2.70
2022-11-07T09:51:02.031Z,2.67
2022-11-07T09:53:37.685Z,2.20
2022-11-07T09:56:05.878Z,1.77
2022-11-07T09:58:38.743Z,1.70
2022-11-07T10:01:07.693Z,2.10
2022-11-07T10:03:35.715Z,2.37
2022-11-07T10:06:12.119Z,1.83
2022-11-07T10:08:48.882Z,1.70
2022-11-07T10:11:28.162Z,2.00
2022-11-07T10:13:55.267Z,1.70
2022-11-07T10:16:32.149Z,1.80
2022-11-07T10:19:20.290Z,1.93
2022-11-07T10:21:54.205Z,1.83
2022-11-07T10:24:27.345Z,2.20
2022-11-07T10:26:54.834Z,2.20
2022-11-07T10:29:24.775Z,1.87
2022-11-07T10:31:56.480Z,2.13
2022-11-07T10:34:43.056Z,2.50
2022-11-07T10:37:10.287Z,2.07
2022-11-07T10:39:37.441Z,1.90
2022-11-07T10:42:07.582Z,2.10
2022-11-07T10:44:35.247Z,1.83
2022-11-07T10:47:15.574Z,1.97
2022-11-07T10:49:42.818Z,2.30
2022-11-07T10:52:11.161Z,1.60
2022-11-07T10:54:40.207Z,2.00
2022-11-07T10:57:10.379Z,2.00
2022-11-07T10:59:42.088Z,2.07
2022-11-07T11:02:18.423Z,2.00
2022-11-07T11:04:50.969Z,2.10
2022-11-07T11:07:21.859Z,1.80
2022-11-07T11:09:55.715Z,2.30
2022-11-07T11:12:33.950Z,1.77
2022-11-07T11:15:11.594Z,1.87
2022-11-07T11:17:41.888Z,1.93
2022-11-07T11:20:24.602Z,1.80
2022-11-07T11:22:54.803Z,1.60
2022-11-07T11:25:23.793Z,1.90
2022-11-07T11:27:54.423Z,1.90
2022-11-07T11:30:22.191Z,1.90
2022-11-07T11:32:55.538Z,1.77
2022-11-07T11:35:28.875Z,1.67
2022-11-07T11:37:59.408Z,2.00
2022-11-07T11:40:26.598Z,2.60
2022-11-07T11:42:56.918Z,1.80
2022-11-07T11:45:31.615Z,2.10
2022-11-07T11:48:10.839Z,1.90
2022-11-07T11:50:46.541Z,1.80
2022-11-07T11:53:17.200Z,2.00
2022-11-07T11:55:52.183Z,1.53
2022-11-07T11:58:31.539Z,1.30
2022-11-07T12:01:04.818Z,1.63
2022-11-07T12:03:42.518Z,1.67
2022-11-07T12:06:16.546Z,1.47
2022-11-07T12:08:48.533Z,1.90
2022-11-07T12:11:18.974Z,1.60
2022-11-07T12:13:58.270Z,1.53
2022-11-07T12:16:57.064Z,2.07
2022-11-07T12:19:33.778Z,1.77
2022-11-07T12:22:07.783Z,2.07
2022-11-07T12:24:53.220Z,1.70
2022-11-07T12:27:35.986Z,1.90
2022-11-07T12:30:12.043Z,1.80
2022-11-07T12:32:57.830Z,1.67
2022-11-07T12:35:37.881Z,1.80
2022-11-07T12:38:14.301Z,1.70
2022-11-07T12:40:47.606Z,2.07
2022-11-07T12:43:15.428Z,2.13
2022-11-07T12:46:08.294Z,1.50
2022-11-07T12:48:54.148Z,1.60
2022-11-07T12:51:21.371Z,1.90
2022-11-07T12:53:48.469Z,1.80
2022-11-07T12:56:18.208Z,2.10
2022-11-07T12:58:46.842Z,1.90
2022-11-07T13:01:15.987Z,1.80
2022-11-07T13:04:01.860Z,1.93
2022-11-07T13:06:47.858Z,1.87
2022-11-07T13:09:44.371Z,1.90
2022-11-07T13:12:17.522Z,1.77
2022-11-07T13:14:47.344Z,2.40
2022-11-07T13:17:17.671Z,2.10
2022-11-07T13:19:45.902Z,1.97
2022-11-07T13:22:21.870Z,2.00
2022-11-07T13:25:17.097Z,2.10
2022-11-07T13:27:46.838Z,2.20
2022-11-07T13:30:13.939Z,2.60
2022-11-07T13:32:41.044Z,2.40
2022-11-07T13:35:09.822Z,2.50
2022-11-07T13:37:38.498Z,1.90
2022-11-07T13:40:12.231Z,2.43
2022-11-07T13:42:41.052Z,2.40
2022-11-07T13:45:40.351Z,2.33
2022-11-07T13:48:13.888Z,2.37
2022-11-07T13:50:42.826Z,2.30
2022-11-07T13:53:23.940Z,2.50
2022-11-07T13:56:14.043Z,2.80
2022-11-07T13:58:42.486Z,2.30
2022-11-07T14:01:10.989Z,2.47
2022-11-07T14:03:38.198Z,2.83
2022-11-07T14:06:06.070Z,2.33
2022-11-07T14:08:35.612Z,2.23
2022-11-07T14:11:02.877Z,2.60
2022-11-07T14:13:41.172Z,2.30
2022-11-07T14:16:18.574Z,2.30
2022-11-07T14:18:52.858Z,2.67
2022-11-07T14:21:22.048Z,2.40
2022-11-07T14:23:49.776Z,2.67
2022-11-07T14:26:19.113Z,2.90
2022-11-07T14:28:47.977Z,2.80
2022-11-07T14:31:20.505Z,3.10
2022-11-07T14:33:48.945Z,2.70
2022-11-07T14:36:16.159Z,2.50
2022-11-07T14:38:50.939Z,2.97
2022-11-07T14:41:18.681Z,2.43
2022-11-07T14:43:46.582Z,2.77
2022-11-07T14:46:19.032Z,2.77
2022-11-07T14:48:47.717Z,2.70
2022-11-07T14:51:16.070Z,3.00
2022-11-07T14:53:49.225Z,3.00
2022-11-07T14:56:21.073Z,2.60
2022-11-07T14:58:48.405Z,2.90
2022-11-07T15:01:24.134Z,2.93
2022-11-07T15:03:54.011Z,2.83
2022-11-07T15:06:26.230Z,2.57
2022-11-07T15:08:57.547Z,2.67
2022-11-07T15:11:32.525Z,3.10
2022-11-07T15:14:00.654Z,2.83
2022-11-07T15:16:32.087Z,3.73
2022-11-07T15:19:09.356Z,3.73
2022-11-07T15:21:38.351Z,3.53
2022-11-07T15:24:24.481Z,3.23
2022-11-07T15:27:01.851Z,2.73
2022-11-07T15:29:36.842Z,2.90
2022-11-07T15:32:14.290Z,3.43
2022-11-07T15:35:00.887Z,3.03
2022-11-07T15:37:29.090Z,3.00
2022-11-07T15:39:56.484Z,2.67
2022-11-07T15:42:23.674Z,3.53
2022-11-07T15:44:50.826Z,3.03
2022-11-07T15:47:21.754Z,2.90
2022-11-07T15:49:49.265Z,2.53
2022-11-07T15:52:16.449Z,2.70
2022-11-07T15:54:43.898Z,2.57
2022-11-07T15:57:12.261Z,2.93
2022-11-07T15:59:39.632Z,3.27
2022-11-07T16:02:12.107Z,2.80
2022-11-07T16:04:39.908Z,2.63
2022-11-07T16:07:09.943Z,3.30
2022-11-07T16:09:37.145Z,2.80
2022-11-07T16:12:04.420Z,3.20
2022-11-07T16:14:47.040Z,3.03
2022-11-07T16:17:18.599Z,2.87
2022-11-07T16:19:48.489Z,2.80
2022-11-07T16:22:16.263Z,3.03
2022-11-07T16:24:43.690Z,3.20
2022-11-07T16:27:16.565Z,3.03
2022-11-07T16:29:44.363Z,2.73
2022-11-07T16:32:17.649Z,3.20
2022-11-07T16:34:45.757Z,2.83
2022-11-07T16:37:12.979Z,3.30
2022-11-07T16:39:40.303Z,3.13
2022-11-07T16:42:10.867Z,3.57
2022-11-07T16:44:38.070Z,2.87
2022-11-07T16:47:05.347Z,3.07
2022-11-07T16:49:33.983Z,2.97
2022-11-07T16:52:01.862Z,3.00
2022-11-07T16:54:28.979Z,3.63
2022-11-07T16:56:56.607Z,3.23
2022-11-07T16:59:24.541Z,3.00
2022-11-07T17:01:52.162Z,3.23
2022-11-07T17:04:19.407Z,3.07
2022-11-07T17:06:47.633Z,3.50
2022-11-07T17:09:24.665Z,3.13
2022-11-07T17:11:51.793Z,3.10
2022-11-07T17:14:18.951Z,3.50
2022-11-07T17:16:47.956Z,3.90
2022-11-07T17:19:15.577Z,3.67
2022-11-07T17:21:46.389Z,3.40
2022-11-07T17:24:13.906Z,3.70
2022-11-07T17:26:41.340Z,3.80
2022-11-07T17:29:09.252Z,4.00
2022-11-07T17:31:36.374Z,3.50
2022-11-07T17:34:03.639Z,3.87
2022-11-07T17:36:37.220Z,3.80
2022-11-07T17:39:11.395Z,4.60
2022-11-07T17:41:40.223Z,4.20
2022-11-07T17:44:07.729Z,3.90
2022-11-07T17:46:35.548Z,3.87
2022-11-07T17:49:07.176Z,4.10
2022-11-07T17:51:39.509Z,4.13
2022-11-07T17:54:06.817Z,4.17
2022-11-07T17:56:34.571Z,3.87
2022-11-07T17:59:04.035Z,3.97
2022-11-07T18:01:32.671Z,4.27
2022-11-07T18:04:00.378Z,3.93
2022-11-07T18:06:27.895Z,4.30
2022-11-07T18:08:56.709Z,3.67
2022-11-07T18:11:25.665Z,3.83
2022-11-07T18:13:53.920Z,4.20
2022-11-07T18:16:25.600Z,3.83
2022-11-07T18:18:52.976Z,3.67
2022-11-07T18:21:20.343Z,3.40
2022-11-07T18:23:48.055Z,3.60
2022-11-07T18:26:25.100Z,4.13
2022-11-07T18:28:53.701Z,3.90
2022-11-07T18:31:21.799Z,4.17
2022-11-07T18:33:49.331Z,4.10
2022-11-07T18:36:17.942Z,3.67
2022-11-07T18:38:45.418Z,4.67
2022-11-07T18:41:16.920Z,4.00
2022-11-07T18:43:44.199Z,3.83
2022-11-07T18:46:16.620Z,4.10
2022-11-07T18:48:43.977Z,3.27
2022-11-07T18:51:12.270Z,4.20
2022-11-07T18:53:39.659Z,3.60
2022-11-07T18:56:08.005Z,3.90
2022-11-07T18:58:36.522Z,4.07
2022-11-07T19:01:08.527Z,3.37
2022-11-07T19:03:37.352Z,3.50
2022-11-07T19:06:08.825Z,3.57
2022-11-07T19:08:37.692Z,3.53
2022-11-07T19:11:07.251Z,3.17
2022-11-07T19:13:38.384Z,3.57
2022-11-07T19:16:06.520Z,4.03
2022-11-07T19:18:33.773Z,3.97
2022-11-07T19:21:03.872Z,3.43
2022-11-07T19:23:31.337Z,3.47
2022-11-07T19:25:58.613Z,3.80
2022-11-07T19:28:25.762Z,3.50
2022-11-07T19:30:52.880Z,3.50
2022-11-07T19:33:20.560Z,3.30
2022-11-07T19:35:48.104Z,3.60
2022-11-07T19:38:15.371Z,4.23
2022-11-07T19:41:03.065Z,3.60
2022-11-07T19:43:31.556Z,3.40
2022-11-07T19:46:06.332Z,3.47
2022-11-07T19:48:33.500Z,3.30
2022-11-07T19:51:05.391Z,3.43
2022-11-07T19:53:32.541Z,3.50
2022-11-07T19:56:07.366Z,3.80
2022-11-07T19:58:39.464Z,4.33
2022-11-07T20:01:13.809Z,3.63
2022-11-07T20:03:43.714Z,3.23
2022-11-07T20:06:11.887Z,4.10
2022-11-07T20:08:39.606Z,3.47
2022-11-07T20:11:07.003Z,4.30
2022-11-07T20:13:34.323Z,4.10
2022-11-07T20:16:01.788Z,4.10
2022-11-07T20:18:28.958Z,4.10
2022-11-07T20:21:03.566Z,3.83
2022-11-07T20:23:30.707Z,3.97
2022-11-07T20:25:57.980Z,3.90
2022-11-07T20:28:25.570Z,4.23
2022-11-07T20:30:56.097Z,3.80
2022-11-07T20:33:24.354Z,3.77
2022-11-07T20:35:58.571Z,3.97
2022-11-07T20:38:25.812Z,4.27
2022-11-07T20:40:53.047Z,3.87
2022-11-07T20:43:20.490Z,4.13
2022-11-07T20:45:47.984Z,4.53
2022-11-07T20:48:16.902Z,3.83
2022-11-07T20:50:44.444Z,3.80
2022-11-07T20:53:11.971Z,4.13
2022-11-07T20:55:43.144Z,4.10
2022-11-07T20:58:10.780Z,4.00
2022-11-07T21:00:38.878Z,4.33
2022-11-07T21:03:06.251Z,4.20
2022-11-07T21:05:33.586Z,3.90
2022-11-07T21:08:00.701Z,4.17
2022-11-07T21:10:28.023Z,3.63
2022-11-07T21:12:55.154Z,4.03
2022-11-07T21:15:22.293Z,4.27
2022-11-07T21:17:49.452Z,4.00
2022-11-07T21:20:16.657Z,4.10
2022-11-07T21:22:43.868Z,4.23
2022-11-07T21:25:11.085Z,3.73
2022-11-07T21:27:38.296Z,4.20
2022-11-07T21:30:07.005Z,4.53
2022-11-07T21:32:35.171Z,4.17
2022-11-07T21:35:02.476Z,4.17
2022-11-07T21:37:29.696Z,4.53
2022-11-07T21:39:59.382Z,3.83
2022-11-07T21:42:26.475Z,4.17
2022-11-07T21:44:53.654Z,3.90
2022-11-07T21:47:20.804Z,4.23
2022-11-07T21:49:51.007Z,4.33
2022-11-07T21:52:18.115Z,4.40
2022-11-07T21:54:45.629Z,3.87
2022-11-07T21:57:13.127Z,3.93
2022-11-07T21:59:40.320Z,4.20
2022-11-07T22:02:07.703Z,3.60
2022-11-07T22:04:36.038Z,4.17
2022-11-07T22:07:03.136Z,4.10
2022-11-07T22:09:30.256Z,4.23
2022-11-07T22:11:57.710Z,4.37
2022-11-07T22:14:24.834Z,3.43
2022-11-07T22:16:52.097Z,4.33
2022-11-07T22:19:19.875Z,3.97
2022-11-07T22:21:47.230Z,4.23
2022-11-07T22:24:14.361Z,3.87
2022-11-07T22:26:41.627Z,3.67
2022-11-07T22:29:08.888Z,3.57
2022-11-07T22:31:36.302Z,3.67
2022-11-07T22:34:03.467Z,3.53
2022-11-07T22:36:30.776Z,3.73
2022-11-07T22:38:58.444Z,3.97
2022-11-07T22:41:26.985Z,3.77
2022-11-07T22:43:54.746Z,3.30
2022-11-07T22:46:22.559Z,3.43
2022-11-07T22:48:50.100Z,3.63
2022-11-07T22:51:19.878Z,3.47
2022-11-07T22:53:47.076Z,3.57
2022-11-07T22:56:15.716Z,3.30
2022-11-07T22:58:43.389Z,3.30
2022-11-07T23:01:17.948Z,3.93
2022-11-07T23:03:45.460Z,3.10
2022-11-07T23:06:12.698Z,3.67
2022-11-07T23:08:39.848Z,3.83
2022-11-07T23:14:02.720Z,3.37
2022-11-07T23:16:37.597Z,3.47
2022-11-07T23:19:06.410Z,3.63
2022-11-07T23:21:33.581Z,3.20
2022-11-07T23:24:01.449Z,3.97
2022-11-07T23:26:36.026Z,3.83
2022-11-07T23:29:11.259Z,3.60
2022-11-07T23:31:41.991Z,4.00
2022-11-07T23:34:09.393Z,3.40
2022-11-07T23:36:36.632Z,3.20
2022-11-07T23:39:09.563Z,3.20
2022-11-07T23:41:36.689Z,3.13
2022-11-07T23:44:04.027Z,3.23
2022-11-07T23:46:50.201Z,3.60
2022-11-07T23:49:36.069Z,3.57
2022-11-07T23:52:03.687Z,3.27
2022-11-07T23:54:49.564Z,3.97
2022-11-07T23:57:16.717Z,4.17
